PWSweather.com
Personal Weather Stations
Station Observations
KMNMADEL2
Andys Live Weather Stations, Madelia, MN 56062

Andys Live Weather StationsMadelia, MN 56062

Lat: 44.04636, Lon: -94.4163437

Elevation: 1006

Station Type: Wireless Davis Instruments Vantage Pro2 Plus

http://www.madeliasliveweather.com/

Latest ConditionsUpdated 2:40:01 PM CDT Saturday, May 28, 2016
Currently Today's Max Today's Min Today's Average
Temperature 66.5°F19.2°C 67.1°F19.5°C 61.3°F16.3°C 63.3°F17.4°C
Dew Point 62.8°F17.1°C 64.1°F17.8°C 58.7°F14.8°C 60.4°F15.8°C
Winds 4.0 mph NNW6.4 kmh NNW 7.0 mph E11.3 kmh E - 2.0 mph 3.2 kmh
Wind Gusts 6.0 mph9.7 kmh 9.0 mph14.5 kmh - -
Humidity 88% 92% 88% 90%
Pressure 29.71 in1006.1 mb 29.72 in1006.4 mb 29.68 in1005.1 mb -
Hour Temp Dew Point Humidity Winds Wind Gusts Pressure Precip Precip Rate Daily Precip Total
02:40 PM 66.5°F19.2°C 62.8°F17.1°C 88% 4.0 mph NNW6.4 kmh NNW 6.0 mph9.7 kmh 29.71 in1006.1 mb 0.01 in0.3 mm 0.00 in0.0 mm 1.02 in25.9 mm
02:35 PM 66.8°F19.3°C 63.1°F17.3°C 88% 3.0 mph NNE4.8 kmh NNE 5.0 mph8.0 kmh 29.72 in1006.4 mb 0.01 in0.3 mm 0.00 in0.0 mm 1.02 in25.9 mm
02:30 PM 66.8°F19.3°C 63.1°F17.3°C 88% 2.0 mph WNW3.2 kmh WNW 4.0 mph6.4 kmh 29.71 in1006.1 mb 0.01 in0.3 mm 0.00 in0.0 mm 1.02 in25.9 mm
02:25 PM 67.1°F19.5°C 64.1°F17.8°C 90% 3.0 mph NNW4.8 kmh NNW 9.0 mph14.5 kmh 29.71 in1006.1 mb 0.01 in0.3 mm 0.00 in0.0 mm 1.02 in25.9 mm
02:20 PM 66.5°F19.2°C 63.5°F17.5°C 90% 3.0 mph N4.8 kmh N 9.0 mph14.5 kmh 29.71 in1006.1 mb 0.01 in0.3 mm 0.00 in0.0 mm 1.02 in25.9 mm
02:15 PM 66.1°F18.9°C 63.1°F17.3°C 90% 1.0 mph N1.6 kmh N 9.0 mph14.5 kmh 29.71 in1006.1 mb 0.01 in0.3 mm 0.00 in0.0 mm 1.02 in25.9 mm
02:10 PM 66.6°F19.2°C 63.6°F17.6°C 90% 5.0 mph NNE8.0 kmh NNE 9.0 mph14.5 kmh 29.71 in1006.1 mb 0.01 in0.3 mm 0.00 in0.0 mm 1.02 in25.9 mm
02:05 PM 66.5°F19.2°C 63.5°F17.5°C 90% 1.0 mph S1.6 kmh S 9.0 mph14.5 kmh 29.71 in1006.1 mb 0.01 in0.3 mm 0.00 in0.0 mm 1.02 in25.9 mm
02:00 PM 66.0°F18.9°C 63.0°F17.2°C 90% 4.0 mph NNE6.4 kmh NNE 7.0 mph11.3 kmh 29.71 in1006.1 mb 0.01 in0.3 mm 0.00 in0.0 mm 1.02 in25.9 mm
01:55 PM 65.6°F18.7°C 62.6°F17.0°C 90% 5.0 mph NNW8.0 kmh NNW 7.0 mph11.3 kmh 29.70 in1005.8 mb 0.01 in0.3 mm 0.00 in0.0 mm 1.02 in25.9 mm
01:50 PM 65.3°F18.5°C 62.3°F16.8°C 90% 4.0 mph N6.4 kmh N 7.0 mph11.3 kmh 29.71 in1006.1 mb 0.01 in0.3 mm 0.00 in0.0 mm 1.02 in25.9 mm
01:45 PM 65.0°F18.3°C 62.0°F16.7°C 90% 3.0 mph N4.8 kmh N 7.0 mph11.3 kmh 29.71 in1006.1 mb 0.01 in0.3 mm 0.00 in0.0 mm 1.02 in25.9 mm
01:40 PM 64.9°F18.3°C 61.9°F16.6°C 90% 6.0 mph N9.7 kmh N 7.0 mph11.3 kmh 29.71 in1006.1 mb 0.01 in0.3 mm 0.12 in3.0 mm 1.02 in25.9 mm
01:35 PM 65.2°F18.4°C 62.2°F16.8°C 90% 2.0 mph NNW3.2 kmh NNW 6.0 mph9.7 kmh 29.71 in1006.1 mb 0.00 in0.0 mm 0.00 in0.0 mm 1.01 in25.7 mm
01:30 PM 65.4°F18.6°C 62.4°F16.9°C 90% 1.0 mph NW1.6 kmh NW 6.0 mph9.7 kmh 29.71 in1006.1 mb 0.00 in0.0 mm 0.00 in0.0 mm 1.01 in25.7 mm
01:25 PM 65.9°F18.8°C 62.9°F17.2°C 90% 4.0 mph NNW6.4 kmh NNW 8.0 mph12.9 kmh 29.71 in1006.1 mb 0.00 in0.0 mm 0.00 in0.0 mm 1.01 in25.7 mm
01:20 PM 65.9°F18.8°C 62.9°F17.2°C 90% 1.0 mph NW1.6 kmh NW 8.0 mph12.9 kmh 29.70 in1005.8 mb 0.00 in0.0 mm 0.00 in0.0 mm 1.01 in25.7 mm
01:15 PM 65.4°F18.6°C 62.4°F16.9°C 90% 5.0 mph NW8.0 kmh NW 8.0 mph12.9 kmh 29.71 in1006.1 mb 0.00 in0.0 mm 0.00 in0.0 mm 1.01 in25.7 mm
01:10 PM 65.4°F18.6°C 62.4°F16.9°C 90% 3.0 mph NE4.8 kmh NE 8.0 mph12.9 kmh 29.71 in1006.1 mb 0.00 in0.0 mm 0.00 in0.0 mm 1.01 in25.7 mm
01:05 PM 65.0°F18.3°C 62.0°F16.7°C 90% 3.0 mph NNW4.8 kmh NNW 8.0 mph12.9 kmh 29.70 in1005.8 mb 0.00 in0.0 mm 0.00 in0.0 mm 1.01 in25.7 mm
01:00 PM 65.1°F18.4°C 62.1°F16.7°C 90% 1.0 mph NNW1.6 kmh NNW 8.0 mph12.9 kmh 29.71 in1006.1 mb 0.00 in0.0 mm 0.00 in0.0 mm 1.01 in25.7 mm
12:55 PM 65.3°F18.5°C 62.3°F16.8°C 90% 2.0 mph NW3.2 kmh NW 8.0 mph12.9 kmh 29.72 in1006.4 mb 0.01 in0.3 mm 0.00 in0.0 mm 1.01 in25.7 mm
12:50 PM 65.6°F18.7°C 62.6°F17.0°C 90% 3.0 mph WNW4.8 kmh WNW 8.0 mph12.9 kmh 29.72 in1006.4 mb 0.01 in0.3 mm 0.00 in0.0 mm 1.01 in25.7 mm
12:45 PM 65.6°F18.7°C 62.6°F17.0°C 90% 4.0 mph NNW6.4 kmh NNW 8.0 mph12.9 kmh 29.71 in1006.1 mb 0.01 in0.3 mm 0.00 in0.0 mm 1.01 in25.7 mm
12:40 PM 65.9°F18.8°C 62.9°F17.2°C 90% 4.0 mph N6.4 kmh N 6.0 mph9.7 kmh 29.71 in1006.1 mb 0.01 in0.3 mm 0.00 in0.0 mm 1.01 in25.7 mm
12:35 PM 65.7°F18.7°C 63.0°F17.2°C 91% 1.0 mph NW1.6 kmh NW 6.0 mph9.7 kmh 29.70 in1005.8 mb 0.01 in0.3 mm 0.00 in0.0 mm 1.01 in25.7 mm
12:30 PM 65.5°F18.6°C 62.8°F17.1°C 91% 2.0 mph NW3.2 kmh NW 6.0 mph9.7 kmh 29.71 in1006.1 mb 0.01 in0.3 mm 0.00 in0.0 mm 1.01 in25.7 mm
12:25 PM 64.9°F18.3°C 62.2°F16.8°C 91% 4.0 mph WSW6.4 kmh WSW 7.0 mph11.3 kmh 29.71 in1006.1 mb 0.26 in6.6 mm 0.00 in0.0 mm 1.01 in25.7 mm
12:20 PM 64.6°F18.1°C 61.9°F16.6°C 91% 3.0 mph NW4.8 kmh NW 7.0 mph11.3 kmh 29.70 in1005.8 mb 0.26 in6.6 mm 0.00 in0.0 mm 1.01 in25.7 mm
12:15 PM 64.8°F18.2°C 62.1°F16.7°C 91% 3.0 mph WNW4.8 kmh WNW 7.0 mph11.3 kmh 29.70 in1005.8 mb 0.26 in6.6 mm 0.00 in0.0 mm 1.01 in25.7 mm
12:10 PM 64.8°F18.2°C 62.1°F16.7°C 91% 2.0 mph NW3.2 kmh NW 3.0 mph4.8 kmh 29.71 in1006.1 mb 0.26 in6.6 mm 0.00 in0.0 mm 1.01 in25.7 mm
12:05 PM 65.2°F18.4°C 62.5°F16.9°C 91% 3.0 mph NNW4.8 kmh NNW 3.0 mph4.8 kmh 29.71 in1006.1 mb 0.26 in6.6 mm 0.00 in0.0 mm 1.01 in25.7 mm
12:00 PM 65.2°F18.4°C 62.5°F16.9°C 91% 1.0 mph W1.6 kmh W 3.0 mph4.8 kmh 29.71 in1006.1 mb 0.26 in6.6 mm 0.00 in0.0 mm 1.01 in25.7 mm
11:55 AM 65.3°F18.5°C 62.6°F17.0°C 91% Calm Calm 5.0 mph8.0 kmh 29.70 in1005.8 mb 0.32 in8.1 mm 0.00 in0.0 mm 1.01 in25.7 mm
11:50 AM 65.8°F18.8°C 63.4°F17.4°C 92% 3.0 mph ENE4.8 kmh ENE 5.0 mph8.0 kmh 29.70 in1005.8 mb 0.32 in8.1 mm 0.00 in0.0 mm 1.01 in25.7 mm
11:45 AM 65.4°F18.6°C 63.0°F17.2°C 92% 3.0 mph E4.8 kmh E 5.0 mph8.0 kmh 29.70 in1005.8 mb 0.32 in8.1 mm 0.00 in0.0 mm 1.01 in25.7 mm
11:40 AM 64.6°F18.1°C 61.9°F16.6°C 91% 3.0 mph E4.8 kmh E 5.0 mph8.0 kmh 29.70 in1005.8 mb 0.32 in8.1 mm 0.00 in0.0 mm 1.01 in25.7 mm
11:35 AM 64.6°F18.1°C 61.9°F16.6°C 91% Calm Calm 4.0 mph6.4 kmh 29.70 in1005.8 mb 0.32 in8.1 mm 0.00 in0.0 mm 1.01 in25.7 mm
11:30 AM 64.3°F17.9°C 61.6°F16.4°C 91% Calm Calm 2.0 mph3.2 kmh 29.70 in1005.8 mb 0.32 in8.1 mm 0.00 in0.0 mm 1.01 in25.7 mm
11:25 AM 64.3°F17.9°C 61.6°F16.4°C 91% 2.0 mph NE3.2 kmh NE 5.0 mph8.0 kmh 29.70 in1005.8 mb 0.70 in17.8 mm 0.36 in9.1 mm 1.01 in25.7 mm
11:20 AM 64.2°F17.9°C 61.5°F16.4°C 91% 1.0 mph E1.6 kmh E 5.0 mph8.0 kmh 29.70 in1005.8 mb 0.67 in17.0 mm 0.36 in9.1 mm 0.98 in24.9 mm
11:15 AM 64.1°F17.8°C 61.4°F16.3°C 91% 2.0 mph E3.2 kmh E 5.0 mph8.0 kmh 29.70 in1005.8 mb 0.64 in16.3 mm 0.36 in9.1 mm 0.95 in24.1 mm
11:10 AM 64.1°F17.8°C 61.4°F16.3°C 91% 2.0 mph E3.2 kmh E 5.0 mph8.0 kmh 29.70 in1005.8 mb 0.61 in15.5 mm 0.84 in21.3 mm 0.92 in23.4 mm
11:05 AM 64.0°F17.8°C 61.3°F16.3°C 91% 2.0 mph E3.2 kmh E 5.0 mph8.0 kmh 29.70 in1005.8 mb 0.54 in13.7 mm 0.96 in24.4 mm 0.85 in21.6 mm
11:00 AM 64.2°F17.9°C 61.5°F16.4°C 91% 2.0 mph SE3.2 kmh SE 3.0 mph4.8 kmh 29.71 in1006.1 mb 0.46 in11.7 mm 0.00 in0.0 mm 0.77 in19.6 mm
10:55 AM 64.6°F18.1°C 61.9°F16.6°C 91% 4.0 mph ENE6.4 kmh ENE 7.0 mph11.3 kmh 29.70 in1005.8 mb 0.46 in11.7 mm 0.00 in0.0 mm 0.77 in19.6 mm
10:50 AM 64.8°F18.2°C 62.1°F16.7°C 91% 4.0 mph NE6.4 kmh NE 7.0 mph11.3 kmh 29.69 in1005.4 mb 0.46 in11.7 mm 0.12 in3.0 mm 0.77 in19.6 mm
10:45 AM 64.5°F18.1°C 61.8°F16.6°C 91% 1.0 mph ENE1.6 kmh ENE 6.0 mph9.7 kmh 29.69 in1005.4 mb 0.45 in11.4 mm 0.00 in0.0 mm 0.76 in19.3 mm
10:40 AM 64.1°F17.8°C 61.4°F16.3°C 91% 4.0 mph E6.4 kmh E 6.0 mph9.7 kmh 29.69 in1005.4 mb 0.45 in11.4 mm 0.24 in6.1 mm 0.76 in19.3 mm
10:35 AM 63.8°F17.7°C 61.1°F16.2°C 91% 5.0 mph E8.0 kmh E 6.0 mph9.7 kmh 29.70 in1005.8 mb 0.43 in10.9 mm 0.24 in6.1 mm 0.74 in18.8 mm
10:30 AM 63.5°F17.5°C 60.8°F16.0°C 91% Calm Calm 4.0 mph6.4 kmh 29.70 in1005.8 mb 0.41 in10.4 mm 0.00 in0.0 mm 0.72 in18.3 mm
10:25 AM 63.4°F17.4°C 60.7°F15.9°C 91% 7.0 mph E11.3 kmh E 9.0 mph14.5 kmh 29.70 in1005.8 mb 0.44 in11.2 mm 0.72 in18.3 mm 0.72 in18.3 mm
10:20 AM 63.4°F17.4°C 60.7°F15.9°C 91% 2.0 mph ENE3.2 kmh ENE 9.0 mph14.5 kmh 29.70 in1005.8 mb 0.38 in9.7 mm 1.68 in42.7 mm 0.66 in16.8 mm
10:15 AM 63.4°F17.4°C 60.7°F15.9°C 91% 2.0 mph E3.2 kmh E 9.0 mph14.5 kmh 29.70 in1005.8 mb 0.24 in6.1 mm 1.80 in45.7 mm 0.52 in13.2 mm
10:10 AM 63.4°F17.4°C 60.7°F15.9°C 91% Calm Calm 9.0 mph14.5 kmh 29.70 in1005.8 mb 0.09 in2.3 mm 0.60 in15.2 mm 0.37 in9.4 mm
10:05 AM 63.5°F17.5°C 60.8°F16.0°C 91% 2.0 mph E3.2 kmh E 9.0 mph14.5 kmh 29.70 in1005.8 mb 0.04 in1.0 mm 0.00 in0.0 mm 0.32 in8.1 mm
10:00 AM 63.5°F17.5°C 60.8°F16.0°C 91% 2.0 mph E3.2 kmh E 5.0 mph8.0 kmh 29.70 in1005.8 mb 0.04 in1.0 mm 0.00 in0.0 mm 0.32 in8.1 mm
09:55 AM 63.4°F17.4°C 60.7°F15.9°C 91% 1.0 mph E1.6 kmh E 7.0 mph11.3 kmh 29.70 in1005.8 mb 0.26 in6.6 mm 0.00 in0.0 mm 0.32 in8.1 mm
09:50 AM 63.4°F17.4°C 60.7°F15.9°C 91% Calm Calm 7.0 mph11.3 kmh 29.70 in1005.8 mb 0.26 in6.6 mm 0.00 in0.0 mm 0.32 in8.1 mm
09:45 AM 63.4°F17.4°C 60.7°F15.9°C 91% 1.0 mph E1.6 kmh E 7.0 mph11.3 kmh 29.70 in1005.8 mb 0.26 in6.6 mm 0.00 in0.0 mm 0.32 in8.1 mm
09:40 AM 63.4°F17.4°C 60.7°F15.9°C 91% 2.0 mph E3.2 kmh E 5.0 mph8.0 kmh 29.70 in1005.8 mb 0.26 in6.6 mm 0.00 in0.0 mm 0.32 in8.1 mm
09:35 AM 63.2°F17.3°C 60.5°F15.8°C 91% 5.0 mph E8.0 kmh E 5.0 mph8.0 kmh 29.70 in1005.8 mb 0.26 in6.6 mm 0.00 in0.0 mm 0.32 in8.1 mm
09:30 AM 63.2°F17.3°C 60.5°F15.8°C 91% 1.0 mph E1.6 kmh E 3.0 mph4.8 kmh 29.70 in1005.8 mb 0.26 in6.6 mm 0.00 in0.0 mm 0.32 in8.1 mm
09:25 AM 63.1°F17.3°C 60.4°F15.8°C 91% 1.0 mph E1.6 kmh E 6.0 mph9.7 kmh 29.70 in1005.8 mb 0.26 in6.6 mm 0.00 in0.0 mm 0.32 in8.1 mm
09:20 AM 63.0°F17.2°C 60.3°F15.7°C 91% Calm Calm 6.0 mph9.7 kmh 29.70 in1005.8 mb 0.26 in6.6 mm 0.12 in3.0 mm 0.32 in8.1 mm
09:15 AM 62.9°F17.2°C 60.2°F15.7°C 91% 4.0 mph E6.4 kmh E 6.0 mph9.7 kmh 29.70 in1005.8 mb 0.25 in6.4 mm 0.00 in0.0 mm 0.31 in7.9 mm
09:10 AM 62.8°F17.1°C 60.1°F15.6°C 91% 1.0 mph E1.6 kmh E 3.0 mph4.8 kmh 29.70 in1005.8 mb 0.25 in6.4 mm 0.12 in3.0 mm 0.31 in7.9 mm
09:05 AM 62.7°F17.1°C 59.7°F15.4°C 90% 1.0 mph E1.6 kmh E 3.0 mph4.8 kmh 29.70 in1005.8 mb 0.24 in6.1 mm 0.12 in3.0 mm 0.30 in7.6 mm
09:00 AM 62.5°F16.9°C 59.5°F15.3°C 90% 2.0 mph NE3.2 kmh NE 2.0 mph3.2 kmh 29.70 in1005.8 mb 0.23 in5.8 mm 0.03 in0.8 mm 0.29 in7.4 mm
08:55 AM 62.5°F16.9°C 59.5°F15.3°C 90% Calm Calm 4.0 mph6.4 kmh 29.70 in1005.8 mb 0.20 in5.1 mm 0.60 in15.2 mm 0.26 in6.6 mm
08:50 AM 62.5°F16.9°C 59.5°F15.3°C 90% Calm Calm 4.0 mph6.4 kmh 29.70 in1005.8 mb 0.15 in3.8 mm 0.48 in12.2 mm 0.21 in5.3 mm
08:45 AM 62.6°F17.0°C 59.6°F15.3°C 90% 2.0 mph ENE3.2 kmh ENE 4.0 mph6.4 kmh 29.70 in1005.8 mb 0.11 in2.8 mm 0.96 in24.4 mm 0.17 in4.3 mm
08:40 AM 62.6°F17.0°C 59.6°F15.3°C 90% Calm Calm 3.0 mph4.8 kmh 29.70 in1005.8 mb 0.03 in0.8 mm 0.12 in3.0 mm 0.09 in2.3 mm
08:35 AM 62.7°F17.1°C 59.7°F15.4°C 90% Calm Calm 3.0 mph4.8 kmh 29.69 in1005.4 mb 0.02 in0.5 mm 0.24 in6.1 mm 0.08 in2.0 mm
08:30 AM 62.6°F17.0°C 59.6°F15.3°C 90% 1.0 mph E1.6 kmh E 3.0 mph4.8 kmh 29.69 in1005.4 mb 0.00 in0.0 mm 0.00 in0.0 mm 0.06 in1.5 mm
08:25 AM 62.6°F17.0°C 59.6°F15.3°C 90% 3.0 mph E4.8 kmh E 8.0 mph12.9 kmh 29.69 in1005.4 mb 0.00 in0.0 mm 0.00 in0.0 mm 0.06 in1.5 mm
08:20 AM 62.5°F16.9°C 59.5°F15.3°C 90% 4.0 mph E6.4 kmh E 8.0 mph12.9 kmh 29.69 in1005.4 mb 0.00 in0.0 mm 0.00 in0.0 mm 0.06 in1.5 mm
08:15 AM 62.5°F16.9°C 59.5°F15.3°C 90% 2.0 mph E3.2 kmh E 8.0 mph12.9 kmh 29.68 in1005.1 mb 0.00 in0.0 mm 0.00 in0.0 mm 0.06 in1.5 mm
08:10 AM 62.5°F16.9°C 59.5°F15.3°C 90% 3.0 mph E4.8 kmh E 7.0 mph11.3 kmh 29.68 in1005.1 mb 0.00 in0.0 mm 0.00 in0.0 mm 0.06 in1.5 mm
08:05 AM 62.4°F16.9°C 59.4°F15.2°C 90% 1.0 mph E1.6 kmh E 7.0 mph11.3 kmh 29.68 in1005.1 mb 0.00 in0.0 mm 0.00 in0.0 mm 0.06 in1.5 mm
08:00 AM 62.4°F16.9°C 59.4°F15.2°C 90% 3.0 mph ENE4.8 kmh ENE 7.0 mph11.3 kmh 29.68 in1005.1 mb 0.00 in0.0 mm 0.00 in0.0 mm 0.06 in1.5 mm
07:55 AM 62.4°F16.9°C 59.7°F15.4°C 91% 2.0 mph E3.2 kmh E 9.0 mph14.5 kmh 29.68 in1005.1 mb 0.00 in0.0 mm 0.00 in0.0 mm 0.06 in1.5 mm
07:50 AM 62.4°F16.9°C 59.7°F15.4°C 91% 4.0 mph E6.4 kmh E 9.0 mph14.5 kmh 29.68 in1005.1 mb 0.00 in0.0 mm 0.00 in0.0 mm 0.06 in1.5 mm
07:45 AM 62.2°F16.8°C 59.6°F15.3°C 91% 3.0 mph NNE4.8 kmh NNE 9.0 mph14.5 kmh 29.68 in1005.1 mb 0.00 in0.0 mm 0.00 in0.0 mm 0.06 in1.5 mm
07:40 AM 62.2°F16.8°C 59.6°F15.3°C 91% 6.0 mph E9.7 kmh E 9.0 mph14.5 kmh 29.68 in1005.1 mb 0.00 in0.0 mm 0.00 in0.0 mm 0.06 in1.5 mm
07:35 AM 62.1°F16.7°C 59.5°F15.3°C 91% 3.0 mph NE4.8 kmh NE 9.0 mph14.5 kmh 29.69 in1005.4 mb 0.00 in0.0 mm 0.00 in0.0 mm 0.06 in1.5 mm
07:30 AM 61.9°F16.6°C 59.3°F15.2°C 91% 7.0 mph E11.3 kmh E 9.0 mph14.5 kmh 29.68 in1005.1 mb 0.00 in0.0 mm 0.00 in0.0 mm 0.06 in1.5 mm
07:25 AM 61.9°F16.6°C 59.3°F15.2°C 91% 2.0 mph NE3.2 kmh NE 8.0 mph12.9 kmh 29.68 in1005.1 mb 0.00 in0.0 mm 0.00 in0.0 mm 0.06 in1.5 mm
07:20 AM 61.8°F16.6°C 59.2°F15.1°C 91% 2.0 mph ENE3.2 kmh ENE 8.0 mph12.9 kmh 29.68 in1005.1 mb 0.00 in0.0 mm 0.00 in0.0 mm 0.06 in1.5 mm
07:15 AM 61.7°F16.5°C 59.1°F15.1°C 91% 1.0 mph ENE1.6 kmh ENE 8.0 mph12.9 kmh 29.68 in1005.1 mb 0.00 in0.0 mm 0.00 in0.0 mm 0.06 in1.5 mm
07:10 AM 61.8°F16.6°C 59.2°F15.1°C 91% 2.0 mph ESE3.2 kmh ESE 7.0 mph11.3 kmh 29.68 in1005.1 mb 0.00 in0.0 mm 0.00 in0.0 mm 0.06 in1.5 mm
07:05 AM 61.7°F16.5°C 59.1°F15.1°C 91% 2.0 mph ENE3.2 kmh ENE 7.0 mph11.3 kmh 29.68 in1005.1 mb 0.00 in0.0 mm 0.00 in0.0 mm 0.06 in1.5 mm
07:00 AM 61.7°F16.5°C 59.1°F15.1°C 91% 2.0 mph E3.2 kmh E 5.0 mph8.0 kmh 29.68 in1005.1 mb 0.00 in0.0 mm 0.00 in0.0 mm 0.06 in1.5 mm
06:55 AM 61.6°F16.4°C 59.0°F15.0°C 91% 5.0 mph E8.0 kmh E 8.0 mph12.9 kmh 29.68 in1005.1 mb 0.00 in0.0 mm 0.00 in0.0 mm 0.06 in1.5 mm
06:50 AM 61.6°F16.4°C 59.0°F15.0°C 91% 2.0 mph ENE3.2 kmh ENE 8.0 mph12.9 kmh 29.68 in1005.1 mb 0.00 in0.0 mm 0.00 in0.0 mm 0.06 in1.5 mm
06:45 AM 61.5°F16.4°C 58.9°F14.9°C 91% 1.0 mph E1.6 kmh E 8.0 mph12.9 kmh 29.68 in1005.1 mb 0.00 in0.0 mm 0.00 in0.0 mm 0.06 in1.5 mm
06:40 AM 61.5°F16.4°C 58.9°F14.9°C 91% 3.0 mph E4.8 kmh E 8.0 mph12.9 kmh 29.68 in1005.1 mb 0.00 in0.0 mm 0.00 in0.0 mm 0.06 in1.5 mm
06:35 AM 61.4°F16.3°C 58.8°F14.9°C 91% 2.0 mph E3.2 kmh E 8.0 mph12.9 kmh 29.68 in1005.1 mb 0.00 in0.0 mm 0.00 in0.0 mm 0.06 in1.5 mm
06:30 AM 61.4°F16.3°C 58.8°F14.9°C 91% 3.0 mph NE4.8 kmh NE 7.0 mph11.3 kmh 29.68 in1005.1 mb 0.00 in0.0 mm 0.00 in0.0 mm 0.06 in1.5 mm
06:25 AM 61.4°F16.3°C 58.8°F14.9°C 91% 5.0 mph E8.0 kmh E 7.0 mph11.3 kmh 29.68 in1005.1 mb 0.00 in0.0 mm 0.00 in0.0 mm 0.06 in1.5 mm
06:20 AM 61.4°F16.3°C 58.8°F14.9°C 91% 1.0 mph E1.6 kmh E 7.0 mph11.3 kmh 29.68 in1005.1 mb 0.00 in0.0 mm 0.00 in0.0 mm 0.06 in1.5 mm
06:15 AM 61.4°F16.3°C 58.8°F14.9°C 91% 3.0 mph NE4.8 kmh NE 7.0 mph11.3 kmh 29.68 in1005.1 mb 0.00 in0.0 mm 0.00 in0.0 mm 0.06 in1.5 mm
06:10 AM 61.4°F16.3°C 58.8°F14.9°C 91% 1.0 mph ENE1.6 kmh ENE 7.0 mph11.3 kmh 29.68 in1005.1 mb 0.00 in0.0 mm 0.00 in0.0 mm 0.06 in1.5 mm
06:05 AM 61.3°F16.3°C 58.7°F14.8°C 91% 3.0 mph E4.8 kmh E 7.0 mph11.3 kmh 29.68 in1005.1 mb 0.00 in0.0 mm 0.00 in0.0 mm 0.06 in1.5 mm
06:00 AM 61.4°F16.3°C 58.8°F14.9°C 91% 2.0 mph ENE3.2 kmh ENE 7.0 mph11.3 kmh 29.68 in1005.1 mb 0.00 in0.0 mm 0.00 in0.0 mm 0.06 in1.5 mm
05:55 AM 61.4°F16.3°C 58.8°F14.9°C 91% 1.0 mph E1.6 kmh E 8.0 mph12.9 kmh 29.68 in1005.1 mb 0.00 in0.0 mm 0.00 in0.0 mm 0.06 in1.5 mm
05:50 AM 61.5°F16.4°C 58.9°F14.9°C 91% 6.0 mph E9.7 kmh E 8.0 mph12.9 kmh 29.68 in1005.1 mb 0.00 in0.0 mm 0.00 in0.0 mm 0.06 in1.5 mm
05:45 AM 61.6°F16.4°C 59.0°F15.0°C 91% 5.0 mph E8.0 kmh E 8.0 mph12.9 kmh 29.68 in1005.1 mb 0.00 in0.0 mm 0.00 in0.0 mm 0.06 in1.5 mm
05:40 AM 61.6°F16.4°C 59.0°F15.0°C 91% 2.0 mph ENE3.2 kmh ENE 8.0 mph12.9 kmh 29.68 in1005.1 mb 0.00 in0.0 mm 0.00 in0.0 mm 0.06 in1.5 mm
05:35 AM 61.7°F16.5°C 59.1°F15.1°C 91% 5.0 mph NE8.0 kmh NE 8.0 mph12.9 kmh 29.68 in1005.1 mb 0.00 in0.0 mm 0.00 in0.0 mm 0.06 in1.5 mm
05:30 AM 61.7°F16.5°C 59.1°F15.1°C 91% 3.0 mph NE4.8 kmh NE 8.0 mph12.9 kmh 29.68 in1005.1 mb 0.00 in0.0 mm 0.00 in0.0 mm 0.06 in1.5 mm
05:25 AM 61.7°F16.5°C 59.1°F15.1°C 91% 2.0 mph ENE3.2 kmh ENE 8.0 mph12.9 kmh 29.68 in1005.1 mb 0.00 in0.0 mm 0.00 in0.0 mm 0.06 in1.5 mm
05:20 AM 61.8°F16.6°C 59.2°F15.1°C 91% 1.0 mph SE1.6 kmh SE 8.0 mph12.9 kmh 29.68 in1005.1 mb 0.00 in0.0 mm 0.00 in0.0 mm 0.06 in1.5 mm
05:15 AM 61.8°F16.6°C 59.2°F15.1°C 91% 6.0 mph E9.7 kmh E 8.0 mph12.9 kmh 29.68 in1005.1 mb 0.00 in0.0 mm 0.00 in0.0 mm 0.06 in1.5 mm
05:10 AM 61.8°F16.6°C 59.2°F15.1°C 91% 2.0 mph ENE3.2 kmh ENE 8.0 mph12.9 kmh 29.68 in1005.1 mb 0.00 in0.0 mm 0.00 in0.0 mm 0.06 in1.5 mm
05:05 AM 61.8°F16.6°C 59.2°F15.1°C 91% 4.0 mph NE6.4 kmh NE 8.0 mph12.9 kmh 29.68 in1005.1 mb 0.00 in0.0 mm 0.00 in0.0 mm 0.06 in1.5 mm
05:00 AM 61.9°F16.6°C 59.3°F15.2°C 91% 5.0 mph E8.0 kmh E 7.0 mph11.3 kmh 29.68 in1005.1 mb 0.00 in0.0 mm 0.00 in0.0 mm 0.06 in1.5 mm
04:55 AM 62.0°F16.7°C 59.4°F15.2°C 91% 4.0 mph E6.4 kmh E 8.0 mph12.9 kmh 29.68 in1005.1 mb 0.00 in0.0 mm 0.00 in0.0 mm 0.06 in1.5 mm
04:50 AM 62.1°F16.7°C 59.5°F15.3°C 91% 3.0 mph ENE4.8 kmh ENE 8.0 mph12.9 kmh 29.68 in1005.1 mb 0.00 in0.0 mm 0.00 in0.0 mm 0.06 in1.5 mm
04:45 AM 62.1°F16.7°C 59.5°F15.3°C 91% 1.0 mph ENE1.6 kmh ENE 6.0 mph9.7 kmh 29.68 in1005.1 mb 0.00 in0.0 mm 0.00 in0.0 mm 0.06 in1.5 mm
04:40 AM 62.1°F16.7°C 59.5°F15.3°C 91% 1.0 mph E1.6 kmh E 6.0 mph9.7 kmh 29.68 in1005.1 mb 0.00 in0.0 mm 0.00 in0.0 mm 0.06 in1.5 mm
04:35 AM 62.1°F16.7°C 59.5°F15.3°C 91% 1.0 mph ENE1.6 kmh ENE 5.0 mph8.0 kmh 29.68 in1005.1 mb 0.00 in0.0 mm 0.00 in0.0 mm 0.06 in1.5 mm
04:30 AM 62.1°F16.7°C 59.5°F15.3°C 91% 1.0 mph N1.6 kmh N 3.0 mph4.8 kmh 29.68 in1005.1 mb 0.00 in0.0 mm 0.00 in0.0 mm 0.06 in1.5 mm
04:25 AM 62.1°F16.7°C 59.5°F15.3°C 91% 2.0 mph NE3.2 kmh NE 7.0 mph11.3 kmh 29.68 in1005.1 mb 0.05 in1.3 mm 0.00 in0.0 mm 0.06 in1.5 mm
04:20 AM 62.1°F16.7°C 59.5°F15.3°C 91% Calm Calm 7.0 mph11.3 kmh 29.68 in1005.1 mb 0.05 in1.3 mm 0.00 in0.0 mm 0.06 in1.5 mm
04:15 AM 62.1°F16.7°C 59.1°F15.1°C 90% Calm Calm 7.0 mph11.3 kmh 29.68 in1005.1 mb 0.05 in1.3 mm 0.00 in0.0 mm 0.06 in1.5 mm
04:10 AM 62.1°F16.7°C 59.5°F15.3°C 91% 1.0 mph ENE1.6 kmh ENE 7.0 mph11.3 kmh 29.68 in1005.1 mb 0.05 in1.3 mm 0.00 in0.0 mm 0.06 in1.5 mm
04:05 AM 62.1°F16.7°C 59.5°F15.3°C 91% 1.0 mph E1.6 kmh E 7.0 mph11.3 kmh 29.68 in1005.1 mb 0.05 in1.3 mm 0.00 in0.0 mm 0.06 in1.5 mm
04:00 AM 62.2°F16.8°C 59.2°F15.1°C 90% 3.0 mph E4.8 kmh E 6.0 mph9.7 kmh 29.68 in1005.1 mb 0.05 in1.3 mm 0.00 in0.0 mm 0.06 in1.5 mm
03:55 AM 62.3°F16.8°C 59.3°F15.2°C 90% Calm Calm 6.0 mph9.7 kmh 29.68 in1005.1 mb 0.06 in1.5 mm 0.00 in0.0 mm 0.06 in1.5 mm
03:50 AM 62.3°F16.8°C 59.3°F15.2°C 90% 3.0 mph NE4.8 kmh NE 6.0 mph9.7 kmh 29.68 in1005.1 mb 0.06 in1.5 mm 0.00 in0.0 mm 0.06 in1.5 mm
03:45 AM 62.3°F16.8°C 59.3°F15.2°C 90% 1.0 mph NE1.6 kmh NE 6.0 mph9.7 kmh 29.68 in1005.1 mb 0.06 in1.5 mm 0.00 in0.0 mm 0.06 in1.5 mm
03:40 AM 62.4°F16.9°C 59.4°F15.2°C 90% 2.0 mph ENE3.2 kmh ENE 6.0 mph9.7 kmh 29.68 in1005.1 mb 0.06 in1.5 mm 0.00 in0.0 mm 0.06 in1.5 mm
03:35 AM 62.4°F16.9°C 59.4°F15.2°C 90% Calm Calm 5.0 mph8.0 kmh 29.68 in1005.1 mb 0.06 in1.5 mm 0.00 in0.0 mm 0.06 in1.5 mm
03:30 AM 62.4°F16.9°C 59.4°F15.2°C 90% 4.0 mph ESE6.4 kmh ESE 5.0 mph8.0 kmh 29.69 in1005.4 mb 0.06 in1.5 mm 0.00 in0.0 mm 0.06 in1.5 mm
03:25 AM 62.5°F16.9°C 59.5°F15.3°C 90% 2.0 mph NE3.2 kmh NE 7.0 mph11.3 kmh 29.68 in1005.1 mb 0.06 in1.5 mm 0.12 in3.0 mm 0.06 in1.5 mm
03:20 AM 62.5°F16.9°C 59.5°F15.3°C 90% 3.0 mph E4.8 kmh E 6.0 mph9.7 kmh 29.68 in1005.1 mb 0.05 in1.3 mm 0.12 in3.0 mm 0.05 in1.3 mm
03:15 AM 62.4°F16.9°C 59.4°F15.2°C 90% 3.0 mph E4.8 kmh E 6.0 mph9.7 kmh 29.68 in1005.1 mb 0.04 in1.0 mm 0.12 in3.0 mm 0.04 in1.0 mm
03:10 AM 62.5°F16.9°C 59.5°F15.3°C 90% Calm Calm 6.0 mph9.7 kmh 29.68 in1005.1 mb 0.03 in0.8 mm 0.00 in0.0 mm 0.03 in0.8 mm
03:05 AM 62.6°F17.0°C 59.6°F15.3°C 90% 1.0 mph E1.6 kmh E 6.0 mph9.7 kmh 29.69 in1005.4 mb 0.03 in0.8 mm 0.12 in3.0 mm 0.03 in0.8 mm
03:00 AM 62.7°F17.1°C 59.7°F15.4°C 90% 1.0 mph E1.6 kmh E 6.0 mph9.7 kmh 29.69 in1005.4 mb 0.02 in0.5 mm 0.02 in0.5 mm 0.02 in0.5 mm
02:55 AM 62.6°F17.0°C 59.6°F15.3°C 90% 3.0 mph E4.8 kmh E 6.0 mph9.7 kmh 29.69 in1005.4 mb 0.00 in0.0 mm 0.00 in0.0 mm 0.00 in0.0 mm
02:50 AM 62.6°F17.0°C 59.6°F15.3°C 90% 2.0 mph E3.2 kmh E 6.0 mph9.7 kmh 29.69 in1005.4 mb 0.00 in0.0 mm 0.00 in0.0 mm 0.00 in0.0 mm
02:45 AM 62.6°F17.0°C 59.6°F15.3°C 90% Calm Calm 6.0 mph9.7 kmh 29.69 in1005.4 mb 0.00 in0.0 mm 0.00 in0.0 mm 0.00 in0.0 mm
02:40 AM 62.6°F17.0°C 59.6°F15.3°C 90% 3.0 mph E4.8 kmh E 6.0 mph9.7 kmh 29.69 in1005.4 mb 0.00 in0.0 mm 0.00 in0.0 mm 0.00 in0.0 mm
02:35 AM 62.7°F17.1°C 59.7°F15.4°C 90% 1.0 mph E1.6 kmh E 6.0 mph9.7 kmh 29.69 in1005.4 mb 0.00 in0.0 mm 0.00 in0.0 mm 0.00 in0.0 mm
02:30 AM 62.8°F17.1°C 59.8°F15.4°C 90% 3.0 mph E4.8 kmh E 6.0 mph9.7 kmh 29.69 in1005.4 mb 0.00 in0.0 mm 0.00 in0.0 mm 0.00 in0.0 mm
02:25 AM 62.8°F17.1°C 59.8°F15.4°C 90% 2.0 mph E3.2 kmh E 5.0 mph8.0 kmh 29.70 in1005.8 mb 0.00 in0.0 mm 0.00 in0.0 mm 0.00 in0.0 mm
02:20 AM 62.8°F17.1°C 59.8°F15.4°C 90% 1.0 mph E1.6 kmh E 5.0 mph8.0 kmh 29.70 in1005.8 mb 0.00 in0.0 mm 0.00 in0.0 mm 0.00 in0.0 mm
02:15 AM 62.9°F17.2°C 59.9°F15.5°C 90% 1.0 mph E1.6 kmh E 5.0 mph8.0 kmh 29.70 in1005.8 mb 0.00 in0.0 mm 0.00 in0.0 mm 0.00 in0.0 mm
02:10 AM 62.9°F17.2°C 59.9°F15.5°C 90% 2.0 mph E3.2 kmh E 5.0 mph8.0 kmh 29.70 in1005.8 mb 0.00 in0.0 mm 0.00 in0.0 mm 0.00 in0.0 mm
02:05 AM 62.8°F17.1°C 59.8°F15.4°C 90% 2.0 mph E3.2 kmh E 3.0 mph4.8 kmh 29.70 in1005.8 mb 0.00 in0.0 mm 0.00 in0.0 mm 0.00 in0.0 mm
02:00 AM 63.0°F17.2°C 60.0°F15.6°C 90% Calm Calm -- 29.69 in1005.4 mb 0.00 in0.0 mm 0.00 in0.0 mm 0.00 in0.0 mm
01:55 AM 63.0°F17.2°C 60.0°F15.6°C 90% 1.0 mph ENE1.6 kmh ENE 2.0 mph3.2 kmh 29.69 in1005.4 mb 0.00 in0.0 mm 0.00 in0.0 mm 0.00 in0.0 mm
01:50 AM 63.1°F17.3°C 60.1°F15.6°C 90% Calm Calm 2.0 mph3.2 kmh 29.69 in1005.4 mb 0.00 in0.0 mm 0.00 in0.0 mm 0.00 in0.0 mm
01:45 AM 63.1°F17.3°C 60.1°F15.6°C 90% Calm Calm 2.0 mph3.2 kmh 29.69 in1005.4 mb 0.00 in0.0 mm 0.00 in0.0 mm 0.00 in0.0 mm
01:40 AM 63.0°F17.2°C 60.0°F15.6°C 90% 1.0 mph ENE1.6 kmh ENE 2.0 mph3.2 kmh 29.69 in1005.4 mb 0.00 in0.0 mm 0.00 in0.0 mm 0.00 in0.0 mm
01:35 AM 63.0°F17.2°C 60.0°F15.6°C 90% 2.0 mph ENE3.2 kmh ENE 2.0 mph3.2 kmh 29.69 in1005.4 mb 0.00 in0.0 mm 0.00 in0.0 mm 0.00 in0.0 mm
01:30 AM 62.9°F17.2°C 59.9°F15.5°C 90% Calm Calm -- 29.68 in1005.1 mb 0.00 in0.0 mm 0.00 in0.0 mm 0.00 in0.0 mm
01:25 AM 62.9°F17.2°C 59.9°F15.5°C 90% Calm Calm -- 29.69 in1005.4 mb 0.00 in0.0 mm 0.00 in0.0 mm 0.00 in0.0 mm
01:20 AM 62.9°F17.2°C 59.9°F15.5°C 90% Calm Calm -- 29.69 in1005.4 mb 0.00 in0.0 mm 0.00 in0.0 mm 0.00 in0.0 mm
01:15 AM 63.1°F17.3°C 60.1°F15.6°C 90% Calm Calm -- 29.68 in1005.1 mb 0.00 in0.0 mm 0.00 in0.0 mm 0.00 in0.0 mm
01:10 AM 63.2°F17.3°C 60.2°F15.7°C 90% Calm Calm -- 29.68 in1005.1 mb 0.00 in0.0 mm 0.00 in0.0 mm 0.00 in0.0 mm
01:05 AM 63.2°F17.3°C 59.9°F15.5°C 89% Calm Calm -- 29.68 in1005.1 mb 0.00 in0.0 mm 0.00 in0.0 mm 0.00 in0.0 mm
01:00 AM 63.2°F17.3°C 59.9°F15.5°C 89% Calm Calm -- 29.69 in1005.4 mb 0.00 in0.0 mm 0.00 in0.0 mm 0.00 in0.0 mm
12:55 AM 63.2°F17.3°C 59.9°F15.5°C 89% Calm Calm -- 29.69 in1005.4 mb 0.00 in0.0 mm 0.00 in0.0 mm 0.00 in0.0 mm
12:50 AM 63.3°F17.4°C 60.3°F15.7°C 90% Calm Calm -- 29.69 in1005.4 mb 0.00 in0.0 mm 0.00 in0.0 mm 0.00 in0.0 mm
12:45 AM 63.5°F17.5°C 60.5°F15.8°C 90% Calm Calm -- 29.69 in1005.4 mb 0.00 in0.0 mm 0.00 in0.0 mm 0.00 in0.0 mm
12:40 AM 63.5°F17.5°C 60.5°F15.8°C 90% Calm Calm -- 29.70 in1005.8 mb 0.00 in0.0 mm 0.00 in0.0 mm 0.00 in0.0 mm
12:35 AM 63.4°F17.4°C 60.4°F15.8°C 90% Calm Calm -- 29.70 in1005.8 mb 0.00 in0.0 mm 0.00 in0.0 mm 0.00 in0.0 mm
12:30 AM 63.5°F17.5°C 60.5°F15.8°C 90% Calm Calm -- 29.70 in1005.8 mb 0.00 in0.0 mm 0.00 in0.0 mm 0.00 in0.0 mm
12:25 AM 63.6°F17.6°C 60.3°F15.7°C 89% Calm Calm -- 29.70 in1005.8 mb 0.00 in0.0 mm 0.00 in0.0 mm 0.00 in0.0 mm
12:20 AM 63.5°F17.5°C 60.5°F15.8°C 90% Calm Calm -- 29.70 in1005.8 mb 0.00 in0.0 mm 0.00 in0.0 mm 0.00 in0.0 mm
12:15 AM 63.5°F17.5°C 60.2°F15.7°C 89% Calm Calm -- 29.70 in1005.8 mb 0.00 in0.0 mm 0.00 in0.0 mm 0.00 in0.0 mm
12:10 AM 63.7°F17.6°C 60.4°F15.8°C 89% Calm Calm -- 29.70 in1005.8 mb 0.00 in0.0 mm 0.00 in0.0 mm 0.00 in0.0 mm
12:05 AM 63.6°F17.6°C 60.3°F15.7°C 89% Calm Calm -- 29.71 in1006.1 mb 0.00 in0.0 mm 0.00 in0.0 mm 0.00 in0.0 mm
12:00 AM 63.6°F17.6°C 60.3°F15.7°C 89% Calm Calm -- 29.71 in1006.1 mb 0.00 in0.0 mm 0.00 in0.0 mm 0.00 in0.0 mm